Aitkin, Minnesota
Current Conditions -  °F | °C
As of 1:53 AM on Thursday 23 Oct 2014 (Local Time) from KAIT Reporting Station
Unknown Precip Unknown Precip  
Wind Chill: 54°   Ceiling: 3300
Heat Index: 54°   Visibility: 7mi
Dew Point: 46°   Wind: 8mph
Humidity: 77%   Direction: 170°S
Pressure: 29.93"   Gusts: NA
Location:  46.53°N, 93.71°W
Report Text: KAIT 230653Z AUTO 17007KT 7SM UP SCT026 BKN033 OVC060 12/08 A2993 RMK AO2
Loading
Personal Weather Stations






























Interactive Weather Map
Tropical Storm Tracking
New forecast layout! Learn more

10-Day Weather Forecast

Advertisements
Track Severe Weather on mobile